createdAt,value
2022-11-27T00:03:57.101Z,51.9
2022-11-27T00:09:15.409Z,51.4
2022-11-27T00:14:33.887Z,51.9
2022-11-27T00:19:52.682Z,51.6
2022-11-27T00:25:11.474Z,52.3
2022-11-27T00:30:30.244Z,51.4
2022-11-27T00:35:49.036Z,52.3
2022-11-27T00:41:07.500Z,52.3
2022-11-27T00:46:30.064Z,52.3
2022-11-27T00:51:48.915Z,51.3
2022-11-27T00:57:07.369Z,52.4
2022-11-27T01:02:26.103Z,52.4
2022-11-27T01:07:45.153Z,52.3
2022-11-27T01:13:03.699Z,52.1
2022-11-27T01:18:22.197Z,51.7
2022-11-27T01:23:40.715Z,52.3
2022-11-27T01:28:59.183Z,52.3
2022-11-27T01:34:17.941Z,51.8
2022-11-27T01:39:36.740Z,51.8
2022-11-27T01:44:55.480Z,52
2022-11-27T01:50:14.258Z,51.9
2022-11-27T01:55:33.061Z,51.9
2022-11-27T02:00:51.816Z,51.6
2022-11-27T02:06:10.305Z,51.6
2022-11-27T02:11:29.099Z,52.3
2022-11-27T02:16:47.560Z,52.3
2022-11-27T02:22:06.360Z,52.4
2022-11-27T02:27:25.123Z,51.9
2022-11-27T02:32:43.903Z,51.5
2022-11-27T02:38:02.375Z,51.4
2022-11-27T02:43:21.260Z,52.1
2022-11-27T02:48:39.784Z,52
2022-11-27T02:53:58.560Z,51.5
2022-11-27T02:59:17.471Z,51.5
2022-11-27T03:04:36.013Z,52.1
2022-11-27T03:09:54.781Z,52
2022-11-27T03:15:13.424Z,52.1
2022-11-27T03:20:32.195Z,52.3
2022-11-27T03:25:50.961Z,52
2022-11-27T03:31:15.959Z,51.1
2022-11-27T03:36:34.340Z,51
2022-11-27T03:41:53.085Z,51.4
2022-11-27T03:47:12.007Z,52.3
2022-11-27T03:52:30.837Z,52.1
2022-11-27T03:57:49.613Z,51.1
2022-11-27T04:03:08.663Z,51.2
2022-11-27T04:08:27.543Z,51.8
2022-11-27T04:13:45.770Z,51.5
2022-11-27T04:19:04.505Z,52.1
2022-11-27T04:24:23.063Z,51.6
2022-11-27T04:29:41.821Z,51.4
2022-11-27T04:35:00.590Z,52.2
2022-11-27T04:40:19.319Z,51.3
2022-11-27T04:45:38.061Z,51.3
2022-11-27T04:50:56.557Z,51.4
2022-11-27T04:56:15.160Z,51.3
2022-11-27T05:01:33.637Z,52.3
2022-11-27T05:06:52.718Z,51.3
2022-11-27T05:12:14.291Z,51.6
2022-11-27T05:17:32.797Z,52.1
2022-11-27T05:22:57.432Z,52.4
2022-11-27T05:28:15.852Z,51.4
2022-11-27T05:33:34.610Z,51.9
2022-11-27T05:38:53.513Z,51.2
2022-11-27T05:44:12.208Z,51.4
2022-11-27T05:49:30.965Z,52.4
2022-11-27T05:54:49.869Z,51.3
2022-11-27T06:00:08.649Z,52.2
2022-11-27T06:05:27.405Z,51.6
2022-11-27T06:10:46.315Z,51.7
2022-11-27T06:16:05.438Z,52.2
2022-11-27T06:21:08.483Z,52.5
2022-11-27T06:26:27.388Z,52
2022-11-27T06:31:46.546Z,51.8
2022-11-27T06:37:13.676Z,51.8
2022-11-27T06:42:33.099Z,52.5
2022-11-27T06:47:52.010Z,52.6
2022-11-27T06:53:10.867Z,51.6
2022-11-27T06:58:32.350Z,52
2022-11-27T07:03:51.006Z,51.9
2022-11-27T07:09:09.998Z,52.1
2022-11-27T07:14:28.584Z,52.1
2022-11-27T07:19:46.924Z,52.8
2022-11-27T07:25:05.759Z,51.6
2022-11-27T07:30:24.092Z,51.3
2022-11-27T07:35:42.692Z,51.1
2022-11-27T07:41:01.599Z,50.9
2022-11-27T07:46:20.632Z,52.2
2022-11-27T07:51:39.530Z,50.7
2022-11-27T07:56:58.391Z,51.5
2022-11-27T08:02:17.265Z,51.4
2022-11-27T08:07:35.750Z,50.9
2022-11-27T08:12:54.137Z,51.7
2022-11-27T08:18:12.727Z,51
2022-11-27T08:23:31.305Z,50.9
2022-11-27T08:28:50.145Z,51.4
2022-11-27T08:34:08.724Z,52
2022-11-27T08:39:27.035Z,52.4
2022-11-27T08:44:45.924Z,52.1
2022-11-27T08:50:04.525Z,49.2
2022-11-27T08:55:22.769Z,50
2022-11-27T09:00:41.386Z,50.9
2022-11-27T09:06:00.093Z,51.1
2022-11-27T09:11:18.753Z,45
2022-11-27T09:16:37.692Z,39.1
2022-11-27T09:21:56.669Z,44.4
2022-11-27T09:27:15.261Z,47.2
2022-11-27T09:32:33.271Z,47
2022-11-27T09:37:51.601Z,47.9
2022-11-27T09:43:10.570Z,47.9
2022-11-27T09:48:34.008Z,48.1
2022-11-27T09:53:58.820Z,49
2022-11-27T09:59:17.859Z,49.2
2022-11-27T10:05:14.857Z,48.5
2022-11-27T10:10:33.667Z,49.3
2022-11-27T10:15:52.649Z,49.5
2022-11-27T10:21:11.114Z,49.5
2022-11-27T10:26:14.099Z,48.8
2022-11-27T10:31:33.012Z,49.3
2022-11-27T10:36:51.883Z,49.5
2022-11-27T10:42:10.203Z,50.5
2022-11-27T10:47:34.720Z,50.6
2022-11-27T10:52:53.095Z,49.8
2022-11-27T10:58:11.757Z,50.6
2022-11-27T11:03:30.697Z,49.1
2022-11-27T11:08:49.401Z,48.1
2022-11-27T11:13:53.792Z,49.7
2022-11-27T11:19:12.872Z,49.1
2022-11-27T11:24:31.687Z,48.9
2022-11-27T11:29:50.369Z,44.5
2022-11-27T11:35:09.133Z,46.6
2022-11-27T11:40:27.888Z,46.5
2022-11-27T11:45:49.114Z,47.5
2022-11-27T11:51:07.605Z,47.3
2022-11-27T11:56:25.774Z,48.5
2022-11-27T12:01:44.739Z,47.9
2022-11-27T12:07:03.495Z,48.9
2022-11-27T12:12:21.968Z,48.4
2022-11-27T12:17:40.607Z,48.3
2022-11-27T12:22:59.407Z,49.2
2022-11-27T12:28:18.204Z,48.7
2022-11-27T12:33:37.138Z,48.8
2022-11-27T12:38:40.538Z,49
2022-11-27T12:43:59.117Z,49.5
2022-11-27T12:49:17.340Z,49.4
2022-11-27T12:54:35.800Z,49.2
2022-11-27T12:59:54.254Z,42
2022-11-27T13:05:12.599Z,40.9
2022-11-27T13:10:31.181Z,44.9
2022-11-27T13:15:49.648Z,49.1
2022-11-27T13:21:08.490Z,48.7
2022-11-27T13:26:27.911Z,48.3
2022-11-27T13:31:46.821Z,49
2022-11-27T13:37:06.649Z,49.9
2022-11-27T13:42:30.904Z,50.5
2022-11-27T13:47:48.858Z,50.2
2022-11-27T13:53:07.475Z,51.2
2022-11-27T13:58:26.348Z,52.1
2022-11-27T14:03:44.824Z,48
2022-11-27T14:09:03.376Z,49.1
2022-11-27T14:14:22.364Z,50.4
2022-11-27T14:19:41.278Z,50.3
2022-11-27T14:25:00.229Z,52.1
2022-11-27T14:30:19.112Z,52.6
2022-11-27T14:35:37.469Z,46.1
2022-11-27T14:40:56.146Z,49
2022-11-27T14:46:15.166Z,50.3
2022-11-27T14:51:33.778Z,50.7
2022-11-27T14:56:52.644Z,51
2022-11-27T15:02:11.851Z,52
2022-11-27T15:07:30.951Z,52.8
2022-11-27T15:12:49.900Z,52.6
2022-11-27T15:18:08.498Z,52.8
2022-11-27T15:23:11.537Z,52.8
2022-11-27T15:28:30.461Z,54.7
2022-11-27T15:33:49.538Z,54.3
2022-11-27T15:39:07.830Z,54.1
2022-11-27T15:44:26.182Z,54.9
2022-11-27T15:49:45.085Z,54.4
2022-11-27T15:55:03.983Z,54.6
2022-11-27T16:00:22.318Z,54.8
2022-11-27T16:05:40.916Z,50.8
2022-11-27T16:10:59.505Z,53
2022-11-27T16:16:24.375Z,54.5
2022-11-27T16:21:42.839Z,55.1
2022-11-27T16:27:01.194Z,56.4
2022-11-27T16:32:19.974Z,57.4
2022-11-27T16:37:38.745Z,56.9
2022-11-27T16:42:57.460Z,56.9
2022-11-27T16:48:15.933Z,57.8
2022-11-27T16:53:34.377Z,57.4
2022-11-27T16:58:37.111Z,57.5
2022-11-27T17:03:55.631Z,58.5
2022-11-27T17:09:14.455Z,57.2
2022-11-27T17:14:32.805Z,56.8
2022-11-27T17:19:51.092Z,55.2
2022-11-27T17:25:10.093Z,56.4
2022-11-27T17:30:28.725Z,55.6
2022-11-27T17:35:47.205Z,56.4
2022-11-27T17:41:05.714Z,55.6
2022-11-27T17:46:24.474Z,56.3
2022-11-27T17:51:43.221Z,56.4
2022-11-27T17:57:01.994Z,56.3
2022-11-27T18:02:20.307Z,56.1
2022-11-27T18:07:39.135Z,57
2022-11-27T18:12:57.987Z,56.7
2022-11-27T18:18:16.970Z,55.9
2022-11-27T18:23:35.720Z,51.7
2022-11-27T18:28:53.842Z,52
2022-11-27T18:34:12.546Z,52.5
2022-11-27T18:39:30.741Z,53.6
2022-11-27T18:44:55.436Z,53.7
2022-11-27T18:50:13.861Z,53.3
2022-11-27T18:55:32.330Z,53.7
2022-11-27T19:00:50.818Z,54
2022-11-27T19:06:09.535Z,53.3
2022-11-27T19:11:27.773Z,53.4
2022-11-27T19:16:47.101Z,53.9
2022-11-27T19:22:05.636Z,53.4
2022-11-27T19:27:24.375Z,53.7
2022-11-27T19:32:43.238Z,53.9
2022-11-27T19:38:01.654Z,55
2022-11-27T19:43:19.970Z,55.3
2022-11-27T19:48:37.981Z,54.2
2022-11-27T19:53:56.757Z,55.3
2022-11-27T19:59:14.925Z,54.8
2022-11-27T20:04:33.575Z,54.3
2022-11-27T20:09:52.262Z,54.8
2022-11-27T20:15:10.445Z,54.9
2022-11-27T20:20:34.564Z,54.2
2022-11-27T20:25:53.513Z,54.9
2022-11-27T20:31:12.254Z,54
2022-11-27T20:36:30.648Z,54.6
2022-11-27T20:41:49.067Z,54.4
2022-11-27T20:47:07.809Z,54.6
2022-11-27T20:52:26.661Z,54.9
2022-11-27T20:57:45.398Z,54.8
2022-11-27T21:03:03.870Z,54.6
2022-11-27T21:08:22.234Z,54.8
2022-11-27T21:13:41.012Z,54.7
2022-11-27T21:18:59.543Z,55.4
2022-11-27T21:24:17.569Z,55.3
2022-11-27T21:29:36.570Z,54.7
2022-11-27T21:34:55.315Z,54.9
2022-11-27T21:40:13.985Z,54.7
2022-11-27T21:45:33.025Z,54.6
2022-11-27T21:50:50.934Z,55.2
2022-11-27T21:56:09.701Z,55.1
2022-11-27T22:01:34.017Z,54.4
2022-11-27T22:06:53.119Z,54.7
2022-11-27T22:12:14.260Z,55.1
2022-11-27T22:17:32.868Z,54.2
2022-11-27T22:22:51.406Z,55.3
2022-11-27T22:28:09.522Z,54
2022-11-27T22:33:27.532Z,54.6
2022-11-27T22:38:46.054Z,54.1
2022-11-27T22:44:04.661Z,54.7
2022-11-27T22:49:23.263Z,53.9
2022-11-27T22:54:43.126Z,54.7
2022-11-27T23:00:01.495Z,54.7
2022-11-27T23:05:19.534Z,54.6
2022-11-27T23:10:37.912Z,54.1
2022-11-27T23:15:56.308Z,54.7
2022-11-27T23:21:15.117Z,54.6
2022-11-27T23:26:33.880Z,53.9
2022-11-27T23:31:52.666Z,53.8
2022-11-27T23:37:11.306Z,53.7
2022-11-27T23:42:30.016Z,53.7
2022-11-27T23:47:48.643Z,54.2
2022-11-27T23:53:07.516Z,54.4
2022-11-27T23:58:25.848Z,53.7
